Terminal Aerodrome Forecast
Issued by NWS

Home | Current Version | Previous Version | Text Only | Print | Product List | Glossary On
Versions: 1 2 3 4 5 6 7 8 9 10 11 12 13 14 15 16 17 18 19
000
FTUS44 KTSA 031700 AAA
TAFMLC
TAF AMD
KMLC 031746Z 0318/0418 21008G17KT 4SM BR OVC012
      TEMPO 0318/0322 3/4SM BR OVC002
     FM040000 33006KT 4SM BR OVC005
     FM040600 01010G18KT 4SM -RA OVC008=

USA.gov is the U.S. government's official web portal to all federal, state and local government web resources and services.